createdAt,value
2023-04-04T00:01:27.742Z,101917.41
2023-04-04T00:03:54.493Z,101916.56
2023-04-04T00:06:21.234Z,101908.28
2023-04-04T00:08:48.065Z,101911.06
2023-04-04T00:11:15.031Z,101909.38
2023-04-04T00:13:41.718Z,101913.25
2023-04-04T00:16:08.590Z,101907.75
2023-04-04T00:18:35.360Z,101908.81
2023-04-04T00:21:02.022Z,101907.16
2023-04-04T00:23:28.747Z,101902.75
2023-04-04T00:25:55.326Z,101900.00
2023-04-04T00:28:22.093Z,101898.88
2023-04-04T00:30:48.753Z,101914.88
2023-04-04T00:33:15.740Z,101910.44
2023-04-04T00:35:42.986Z,101902.16
2023-04-04T00:38:09.725Z,101893.31
2023-04-04T00:40:43.781Z,101897.16
2023-04-04T00:43:10.613Z,101898.28
2023-04-04T00:45:37.747Z,101898.28
2023-04-04T00:48:04.484Z,101894.97
2023-04-04T00:50:32.374Z,101894.97
2023-04-04T00:52:59.873Z,101891.38
2023-04-04T00:55:27.326Z,101904.34
2023-04-04T00:57:54.132Z,101907.09
2023-04-04T01:00:20.971Z,101902.66
2023-04-04T01:02:47.691Z,101911.78
2023-04-04T01:05:14.265Z,101908.16
2023-04-04T01:07:41.404Z,101909.84
2023-04-04T01:10:08.419Z,101908.16
2023-04-04T01:12:35.575Z,101914.22
2023-04-04T01:15:02.205Z,101915.34
2023-04-04T01:17:29.127Z,101921.41
2023-04-04T01:20:16.177Z,101920.56
2023-04-04T01:22:48.261Z,101918.91
2023-04-04T01:25:18.164Z,101918.09
2023-04-04T01:27:49.868Z,101929.13
2023-04-04T01:30:18.273Z,101927.16
2023-04-04T01:32:49.835Z,101938.47
2023-04-04T01:35:28.964Z,101927.97
2023-04-04T01:38:13.181Z,101934.03
2023-04-04T01:40:41.960Z,101931.28
2023-04-04T01:43:08.811Z,101935.16
2023-04-04T01:45:38.455Z,101930.16
2023-04-04T01:48:11.136Z,101924.66
2023-04-04T01:50:38.618Z,101925.19
2023-04-04T01:53:05.426Z,101919.13
2023-04-04T01:55:32.254Z,101910.28
2023-04-04T01:58:00.432Z,101915.00
2023-04-04T02:00:27.188Z,101911.63
2023-04-04T02:02:53.764Z,101910.84
2023-04-04T02:05:20.298Z,101911.91
2023-04-04T02:07:47.406Z,101908.06
2023-04-04T02:10:21.917Z,101907.25
2023-04-04T02:12:48.891Z,101901.13
2023-04-04T02:15:15.455Z,101907.50
2023-04-04T02:17:47.655Z,101905.84
2023-04-04T02:20:14.630Z,101898.38
2023-04-04T02:22:41.159Z,101908.84
2023-04-04T02:25:08.082Z,101909.69
2023-04-04T02:27:34.684Z,101916.28
2023-04-04T02:30:01.480Z,101913.53
2023-04-04T02:32:29.332Z,101912.97
2023-04-04T02:34:56.116Z,101909.94
2023-04-04T02:37:22.741Z,101903.03
2023-04-04T02:39:51.904Z,101910.22
2023-04-04T02:42:18.380Z,101902.50
2023-04-04T02:44:45.393Z,101893.66
2023-04-04T02:47:15.166Z,101893.66
2023-04-04T02:49:41.728Z,101899.19
2023-04-04T02:52:08.929Z,101897.50
2023-04-04T02:54:39.922Z,101898.03
2023-04-04T02:57:09.105Z,101895.03
2023-04-04T02:59:35.843Z,101894.19
2023-04-04T03:02:02.663Z,101881.50
2023-04-04T03:04:30.223Z,101888.13
2023-04-04T03:06:57.859Z,101895.56
2023-04-04T03:09:24.504Z,101886.19
2023-04-04T03:11:51.828Z,101886.72
2023-04-04T03:14:18.718Z,101886.72
2023-04-04T03:16:45.649Z,101885.03
2023-04-04T03:19:12.296Z,101888.06
2023-04-04T03:21:38.824Z,101891.91
2023-04-04T03:24:05.694Z,101880.06
2023-04-04T03:26:32.333Z,101891.91
2023-04-04T03:28:58.860Z,101891.91
2023-04-04T03:31:26.176Z,101891.91
2023-04-04T03:33:52.943Z,101888.06
2023-04-04T03:36:21.136Z,101887.25
2023-04-04T03:38:50.202Z,101888.59
2023-04-04T03:41:18.016Z,101888.59
2023-04-04T03:43:45.289Z,101887.97
2023-04-04T03:46:12.043Z,101890.75
2023-04-04T03:48:38.807Z,101888.81
2023-04-04T03:51:08.578Z,101894.59
2023-04-04T03:53:36.797Z,101900.13
2023-04-04T03:56:03.604Z,101900.66
2023-04-04T03:58:30.897Z,101901.22
2023-04-04T04:00:57.726Z,101904.47
2023-04-04T04:03:28.504Z,101911.34
2023-04-04T04:05:55.444Z,101901.69
2023-04-04T04:08:23.854Z,101899.50
2023-04-04T04:10:51.356Z,101893.97
2023-04-04T04:13:17.926Z,101894.50
2023-04-04T04:15:44.591Z,101887.91
2023-04-04T04:18:16.913Z,101893.97
2023-04-04T04:20:43.884Z,101892.81
2023-04-04T04:23:10.691Z,101893.66
2023-04-04T04:25:37.690Z,101887.31
2023-04-04T04:28:15.247Z,101885.66
2023-04-04T04:30:42.389Z,101885.66
2023-04-04T04:33:09.716Z,101888.44
2023-04-04T04:35:45.537Z,101892.78
2023-04-04T04:38:12.698Z,101887.56
2023-04-04T04:40:39.962Z,101895.53
2023-04-04T04:43:14.351Z,101896.06
2023-04-04T04:45:42.191Z,101897.78
2023-04-04T04:48:09.981Z,101900.50
2023-04-04T04:50:47.542Z,101898.81
2023-04-04T04:53:18.463Z,101891.66
2023-04-04T04:55:46.970Z,101893.31
2023-04-04T04:58:15.091Z,101890.00
2023-04-04T05:00:46.489Z,101896.59
2023-04-04T05:03:13.139Z,101899.63
2023-04-04T05:05:47.560Z,101901.25
2023-04-04T05:08:15.718Z,101906.75
2023-04-04T05:11:04.752Z,101899.34
2023-04-04T05:13:32.743Z,101896.03
2023-04-04T05:16:00.172Z,101902.09
2023-04-04T05:18:28.482Z,101903.44
2023-04-04T05:20:56.358Z,101908.63
2023-04-04T05:23:26.425Z,101904.47
2023-04-04T05:25:53.718Z,101906.47
2023-04-04T05:28:23.738Z,101906.41
2023-04-04T05:30:52.988Z,101906.41
2023-04-04T05:33:24.069Z,101903.66
2023-04-04T05:36:09.055Z,101898.13
2023-04-04T05:38:41.493Z,101899.81
2023-04-04T05:41:09.060Z,101897.00
2023-04-04T05:43:35.908Z,101898.69
2023-04-04T05:46:08.993Z,101909.59
2023-04-04T05:48:41.288Z,101912.34
2023-04-04T05:51:08.375Z,101909.22
2023-04-04T05:53:45.587Z,101904.47
2023-04-04T05:56:16.853Z,101918.53
2023-04-04T05:58:46.304Z,101917.38
2023-04-04T06:01:16.207Z,101925.59
2023-04-04T06:03:43.841Z,101926.75
2023-04-04T06:06:13.983Z,101925.63
2023-04-04T06:08:52.993Z,101942.22
2023-04-04T06:11:22.656Z,101936.50
2023-04-04T06:13:49.833Z,101934.44
2023-04-04T06:16:18.998Z,101938.13
2023-04-04T06:18:45.916Z,101934.00
2023-04-04T06:21:13.484Z,101938.72
2023-04-04T06:23:40.411Z,101935.69
2023-04-04T06:26:08.300Z,101936.59
2023-04-04T06:28:36.623Z,101938.09
2023-04-04T06:31:05.944Z,101940.69
2023-04-04T06:33:33.236Z,101947.94
2023-04-04T06:36:00.700Z,101940.84
2023-04-04T06:38:29.400Z,101951.38
2023-04-04T06:40:58.984Z,101954.19
2023-04-04T06:43:25.731Z,101948.19
2023-04-04T06:45:52.316Z,101969.25
2023-04-04T06:48:19.977Z,101965.16
2023-04-04T06:50:47.166Z,101967.69
2023-04-04T06:53:15.966Z,101966.63
2023-04-04T06:55:43.740Z,101966.94
2023-04-04T06:58:10.433Z,101969.19
2023-04-04T07:00:37.403Z,101972.25
2023-04-04T07:03:04.690Z,101974.47
2023-04-04T07:05:32.343Z,101974.78
2023-04-04T07:07:59.026Z,101957.41
2023-04-04T07:10:26.054Z,101961.88
2023-04-04T07:12:52.907Z,101964.16
2023-04-04T07:15:19.686Z,101965.00
2023-04-04T07:17:46.539Z,101967.22
2023-04-04T07:20:13.426Z,101963.06
2023-04-04T07:22:40.745Z,101956.72
2023-04-04T07:25:07.749Z,101951.22
2023-04-04T07:27:34.704Z,101956.75
2023-04-04T07:30:01.507Z,101966.44
2023-04-04T07:32:29.465Z,101964.25
2023-04-04T07:34:56.150Z,101966.47
2023-04-04T07:37:22.813Z,101963.13
2023-04-04T07:39:50.055Z,101958.16
2023-04-04T07:42:22.933Z,101941.25
2023-04-04T07:44:52.565Z,101957.53
2023-04-04T07:47:19.179Z,101948.41
2023-04-04T07:49:45.765Z,101948.13
2023-04-04T07:52:12.607Z,101950.31
2023-04-04T07:54:40.463Z,101957.28
2023-04-04T07:57:09.802Z,101953.72
2023-04-04T07:59:37.205Z,101949.53
2023-04-04T08:02:04.007Z,101942.06
2023-04-04T08:04:31.020Z,101938.75
2023-04-04T08:06:57.760Z,101942.34
2023-04-04T08:09:25.011Z,101942.59
2023-04-04T08:11:51.760Z,101953.13
2023-04-04T08:14:18.346Z,101956.72
2023-04-04T08:16:44.825Z,101958.91
2023-04-04T08:19:11.515Z,101958.09
2023-04-04T08:21:38.119Z,101969.72
2023-04-04T08:24:04.897Z,101957.81
2023-04-04T08:26:31.947Z,101956.72
2023-04-04T08:28:58.605Z,101945.38
2023-04-04T08:31:25.393Z,101948.09
2023-04-04T08:33:52.554Z,101945.38
2023-04-04T08:36:19.726Z,101947.00
2023-04-04T08:38:46.224Z,101935.34
2023-04-04T08:41:13.690Z,101945.31
2023-04-04T08:43:41.653Z,101948.09
2023-04-04T08:46:10.953Z,101936.50
2023-04-04T08:48:39.357Z,101931.47
2023-04-04T08:51:08.285Z,101949.75
2023-04-04T08:53:35.898Z,101942.53
2023-04-04T08:56:02.545Z,101939.78
2023-04-04T08:58:29.246Z,101933.97
2023-04-04T09:00:56.246Z,101932.31
2023-04-04T09:03:27.415Z,101935.06
2023-04-04T09:05:55.066Z,101927.84
2023-04-04T09:08:23.797Z,101932.84
2023-04-04T09:10:51.073Z,101940.59
2023-04-04T09:13:17.704Z,101942.81
2023-04-04T09:15:47.154Z,101944.75
2023-04-04T09:18:13.737Z,101945.59
2023-04-04T09:20:47.169Z,101943.34
2023-04-04T09:23:18.456Z,101936.16
2023-04-04T09:26:03.393Z,101940.88
2023-04-04T09:28:31.662Z,101940.88
2023-04-04T09:30:59.897Z,101939.22
2023-04-04T09:33:26.580Z,101943.66
2023-04-04T09:35:59.198Z,101934.22
2023-04-04T09:38:26.628Z,101937.25
2023-04-04T09:40:54.524Z,101930.88
2023-04-04T09:43:22.490Z,101937.53
2023-04-04T09:45:50.001Z,101930.88
2023-04-04T09:48:37.058Z,101939.19
2023-04-04T09:51:04.752Z,101936.41
2023-04-04T09:53:33.958Z,101931.97
2023-04-04T09:56:00.757Z,101931.13
2023-04-04T09:58:28.674Z,101929.72
2023-04-04T10:00:56.881Z,101923.09
2023-04-04T10:03:23.998Z,101918.66
2023-04-04T10:05:57.898Z,101932.25
2023-04-04T10:08:24.635Z,101919.75
2023-04-04T10:11:06.624Z,101918.09
2023-04-04T10:13:40.731Z,101921.97
2023-04-04T10:16:08.855Z,101920.56
2023-04-04T10:18:35.939Z,101916.94
2023-04-04T10:23:37.087Z,101917.22
2023-04-04T10:26:03.898Z,101907.50
2023-04-04T10:28:31.283Z,101906.97
2023-04-04T10:31:06.692Z,101899.72
2023-04-04T10:33:33.832Z,101904.69
2023-04-04T10:36:03.262Z,101901.88
2023-04-04T10:38:35.368Z,101893.53
2023-04-04T10:41:02.300Z,101903.31
2023-04-04T10:43:32.240Z,101907.41
2023-04-04T10:46:01.893Z,101908.22
2023-04-04T10:48:28.935Z,101903.44
2023-04-04T10:50:56.147Z,101894.81
2023-04-04T10:53:24.112Z,101898.16
2023-04-04T10:55:51.433Z,101893.16
2023-04-04T10:58:18.169Z,101892.00
2023-04-04T11:00:55.831Z,101884.19
2023-04-04T11:03:22.616Z,101881.63
2023-04-04T11:05:51.465Z,101879.50
2023-04-04T11:08:21.030Z,101877.88
2023-04-04T11:10:57.831Z,101879.31
2023-04-04T11:13:29.372Z,101879.31
2023-04-04T11:16:07.633Z,101882.13
2023-04-04T11:18:40.422Z,101876.00
2023-04-04T11:21:08.062Z,101868.78
2023-04-04T11:23:50.350Z,101860.47
2023-04-04T11:26:17.712Z,101849.31
2023-04-04T11:28:46.038Z,101845.16
2023-04-04T11:31:18.742Z,101853.75
2023-04-04T11:33:55.649Z,101852.38
2023-04-04T11:36:37.735Z,101854.31
2023-04-04T11:39:06.228Z,101858.19
2023-04-04T11:41:51.987Z,101851.25
2023-04-04T11:44:19.286Z,101855.97
2023-04-04T11:46:50.994Z,101843.47
2023-04-04T11:49:18.575Z,101845.72
2023-04-04T11:51:45.782Z,101844.28
2023-04-04T11:54:16.678Z,101845.13
2023-04-04T11:56:46.684Z,101829.25
2023-04-04T11:59:14.104Z,101828.69
2023-04-04T12:01:41.246Z,101838.16
2023-04-04T12:04:09.460Z,101825.66
2023-04-04T12:06:36.410Z,101830.63
2023-04-04T12:09:04.189Z,101829.19
2023-04-04T12:11:32.148Z,101819.97
2023-04-04T12:13:58.849Z,101811.97
2023-04-04T12:16:25.516Z,101815.00
2023-04-04T12:18:53.500Z,101817.19
2023-04-04T12:21:20.500Z,101816.09
2023-04-04T12:23:48.654Z,101802.72
2023-04-04T12:26:16.814Z,101812.19
2023-04-04T12:28:45.297Z,101804.66
2023-04-04T12:31:13.275Z,101801.31
2023-04-04T12:33:43.093Z,101805.00
2023-04-04T12:36:11.564Z,101804.88
2023-04-04T12:38:58.737Z,101797.53
2023-04-04T12:41:25.314Z,101797.44
2023-04-04T12:43:51.950Z,101791.13
2023-04-04T12:46:18.658Z,101782.78
2023-04-04T12:48:45.606Z,101777.69
2023-04-04T12:51:12.285Z,101779.94
2023-04-04T12:53:51.101Z,101777.47
2023-04-04T12:56:17.593Z,101765.78
2023-04-04T12:58:47.397Z,101778.81
2023-04-04T13:01:15.473Z,101772.97
2023-04-04T13:03:42.696Z,101773.78
2023-04-04T13:06:18.606Z,101765.97
2023-04-04T13:08:54.648Z,101765.94
2023-04-04T13:11:21.915Z,101771.41
2023-04-04T13:13:48.708Z,101778.63
2023-04-04T13:16:35.865Z,101769.16
2023-04-04T13:19:03.286Z,101757.47
2023-04-04T13:21:30.872Z,101757.38
2023-04-04T13:23:57.816Z,101751.53
2023-04-04T13:26:24.478Z,101740.72
2023-04-04T13:28:51.161Z,101742.28
2023-04-04T13:31:17.919Z,101735.09
2023-04-04T13:33:44.758Z,101736.13
2023-04-04T13:36:11.722Z,101723.31
2023-04-04T13:38:38.413Z,101721.06
2023-04-04T13:41:05.213Z,101725.19
2023-04-04T13:43:31.778Z,101714.38
2023-04-04T13:45:58.535Z,101719.34
2023-04-04T13:48:25.290Z,101709.25
2023-04-04T13:50:52.929Z,101712.53
2023-04-04T13:53:19.758Z,101706.38
2023-04-04T13:56:13.128Z,101706.31
2023-04-04T13:58:33.553Z,101695.13
2023-04-04T14:01:03.371Z,101699.00
2023-04-04T14:03:30.464Z,101692.88
2023-04-04T14:05:56.955Z,101694.16
2023-04-04T14:08:23.442Z,101683.66
2023-04-04T14:10:50.172Z,101690.00
2023-04-04T14:13:16.908Z,101684.38
2023-04-04T14:15:43.869Z,101681.59
2023-04-04T14:18:12.243Z,101680.16
2023-04-04T14:20:39.021Z,101671.50
2023-04-04T14:23:05.687Z,101674.28
2023-04-04T14:25:32.407Z,101678.97
2023-04-04T14:27:58.853Z,101667.00
2023-04-04T14:30:25.665Z,101673.06
2023-04-04T14:32:52.608Z,101668.03
2023-04-04T14:35:19.248Z,101653.00
2023-04-04T14:37:45.955Z,101652.38
2023-04-04T14:40:12.528Z,101654.06
2023-04-04T14:42:39.343Z,101656.50
2023-04-04T14:45:07.893Z,101653.44
2023-04-04T14:47:35.021Z,101656.72
2023-04-04T14:50:01.694Z,101645.59
2023-04-04T14:52:31.600Z,101646.66
2023-04-04T14:54:58.242Z,101647.16
2023-04-04T14:57:24.836Z,101640.44
2023-04-04T14:59:51.471Z,101640.44
2023-04-04T15:02:18.296Z,101642.72
2023-04-04T15:04:45.044Z,101641.59
2023-04-04T15:07:11.652Z,101638.22
2023-04-04T15:09:38.135Z,101643.16
2023-04-04T15:12:04.674Z,101634.19
2023-04-04T15:14:31.196Z,101640.88
2023-04-04T15:16:57.726Z,101630.88
2023-04-04T15:19:24.160Z,101631.41
2023-04-04T15:21:51.099Z,101633.03
2023-04-04T15:24:17.778Z,101632.44
2023-04-04T15:26:44.314Z,101630.81
2023-04-04T15:29:10.836Z,101623.59
2023-04-04T15:31:37.436Z,101624.91
2023-04-04T15:34:04.012Z,101624.63
2023-04-04T15:36:33.508Z,101615.66
2023-04-04T15:39:01.010Z,101622.84
2023-04-04T15:41:28.384Z,101612.22
2023-04-04T15:43:55.076Z,101614.50
2023-04-04T15:46:22.116Z,101611.63
2023-04-04T15:48:51.948Z,101607.72
2023-04-04T15:51:18.604Z,101605.44
2023-04-04T15:53:45.193Z,101602.16
2023-04-04T15:56:11.851Z,101600.69
2023-04-04T15:58:38.340Z,101601.53
2023-04-04T16:01:06.421Z,101596.56
2023-04-04T16:03:32.934Z,101588.13
2023-04-04T16:06:00.696Z,101594.50
2023-04-04T16:08:27.247Z,101589.44
2023-04-04T16:10:53.932Z,101581.63
2023-04-04T16:13:20.790Z,101579.69
2023-04-04T16:15:47.442Z,101588.53
2023-04-04T16:18:14.145Z,101584.59
2023-04-04T16:20:41.139Z,101592.94
2023-04-04T16:23:08.221Z,101594.09
2023-04-04T16:25:34.966Z,101587.91
2023-04-04T16:28:01.650Z,101582.34
2023-04-04T16:30:29.029Z,101582.97
2023-04-04T16:32:55.682Z,101583.19
2023-04-04T16:35:22.351Z,101573.38
2023-04-04T16:37:48.949Z,101567.81
2023-04-04T16:40:15.802Z,101572.84
2023-04-04T16:42:42.570Z,101572.84
2023-04-04T16:45:09.667Z,101570.69
2023-04-04T16:47:36.776Z,101569.78
2023-04-04T16:50:04.274Z,101567.81
2023-04-04T16:52:31.238Z,101568.72
2023-04-04T16:54:57.710Z,101565.94
2023-04-04T16:57:24.381Z,101568.22
2023-04-04T16:59:50.903Z,101567.09
2023-04-04T17:02:17.778Z,101569.16
2023-04-04T17:04:44.732Z,101558.66
2023-04-04T17:07:11.563Z,101563.06
2023-04-04T17:09:38.573Z,101570.09
2023-04-04T17:12:05.411Z,101567.72
2023-04-04T17:14:31.998Z,101567.22
2023-04-04T17:17:00.706Z,101557.22
2023-04-04T17:19:29.932Z,101561.97
2023-04-04T17:21:56.977Z,101557.84
2023-04-04T17:24:25.509Z,101562.59
2023-04-04T17:26:52.531Z,101565.38
2023-04-04T17:29:20.664Z,101560.41
2023-04-04T17:31:50.199Z,101558.88
2023-04-04T17:34:16.939Z,101554.13
2023-04-04T17:36:43.943Z,101554.66
2023-04-04T17:39:10.687Z,101543.63
2023-04-04T17:41:37.705Z,101548.34
2023-04-04T17:44:04.231Z,101550.19
2023-04-04T17:46:30.922Z,101541.34
2023-04-04T17:48:57.576Z,101539.06
2023-04-04T17:51:24.245Z,101537.44
2023-04-04T17:53:51.326Z,101535.78
2023-04-04T17:56:18.039Z,101534.97
2023-04-04T17:58:44.918Z,101536.81
2023-04-04T18:01:11.610Z,101545.69
2023-04-04T18:03:38.593Z,101541.56
2023-04-04T18:06:05.938Z,101541.66
2023-04-04T18:08:32.596Z,101536.22
2023-04-04T18:10:59.184Z,101532.28
2023-04-04T18:13:25.923Z,101537.22
2023-04-04T18:15:53.246Z,101547.22
2023-04-04T18:18:21.359Z,101542.78
2023-04-04T18:20:50.817Z,101545.28
2023-04-04T18:23:17.455Z,101544.44
2023-04-04T18:25:44.088Z,101542.16
2023-04-04T18:28:10.905Z,101554.13
2023-04-04T18:30:37.816Z,101555.56
2023-04-04T18:33:04.616Z,101550.72
2023-04-04T18:35:31.438Z,101551.84
2023-04-04T18:37:57.955Z,101555.78
2023-04-04T18:40:24.569Z,101548.97
2023-04-04T18:42:51.688Z,101549.69
2023-04-04T18:45:20.914Z,101554.53
2023-04-04T18:47:50.052Z,101562.88
2023-04-04T18:50:17.023Z,101568.13
2023-04-04T18:52:43.560Z,101559.47
2023-04-04T18:55:10.742Z,101548.16
2023-04-04T18:57:37.638Z,101557.84
2023-04-04T19:00:06.754Z,101558.66
2023-04-04T19:02:34.218Z,101567.31
2023-04-04T19:05:02.453Z,101561.13
2023-04-04T19:07:30.890Z,101568.34
2023-04-04T19:09:57.796Z,101564.22
2023-04-04T19:12:24.397Z,101561.94
2023-04-04T19:14:51.259Z,101566.91
2023-04-04T19:17:18.270Z,101562.78
2023-04-04T19:19:45.066Z,101565.84
2023-04-04T19:22:11.670Z,101555.75
2023-04-04T19:24:40.328Z,101570.06
2023-04-04T19:27:06.938Z,101570.69
2023-04-04T19:29:35.690Z,101570.59
2023-04-04T19:32:05.684Z,101576.16
2023-04-04T19:34:32.874Z,101575.00
2023-04-04T19:36:59.554Z,101573.03
2023-04-04T19:39:30.494Z,101574.38
2023-04-04T19:41:57.393Z,101576.13
2023-04-04T19:44:23.961Z,101577.66
2023-04-04T19:46:50.508Z,101584.88
2023-04-04T19:49:17.826Z,101582.47
2023-04-04T19:51:54.493Z,101583.00
2023-04-04T19:54:23.983Z,101576.91
2023-04-04T19:56:58.468Z,101580.41
2023-04-04T19:59:46.439Z,101576.28
2023-04-04T20:02:31.411Z,101594.94
2023-04-04T20:04:58.215Z,101591.47
2023-04-04T20:07:24.865Z,101586.94
2023-04-04T20:09:52.101Z,101582.47
2023-04-04T20:12:21.846Z,101590.81
2023-04-04T20:14:48.376Z,101593.47
2023-04-04T20:17:18.029Z,101600.88
2023-04-04T20:19:44.722Z,101589.38
2023-04-04T20:22:11.667Z,101596.97
2023-04-04T20:24:39.380Z,101591.81
2023-04-04T20:27:06.301Z,101585.84
2023-04-04T20:29:33.750Z,101595.59
2023-04-04T20:32:01.624Z,101588.50
2023-04-04T20:34:33.433Z,101587.47
2023-04-04T20:37:00.476Z,101595.59
2023-04-04T20:39:45.536Z,101592.88
2023-04-04T20:42:34.157Z,101585.13
2023-04-04T20:45:07.616Z,101592.13
2023-04-04T20:47:37.383Z,101584.69
2023-04-04T20:50:16.176Z,101588.13
2023-04-04T20:52:44.240Z,101590.66
2023-04-04T20:55:11.006Z,101577.66
2023-04-04T20:57:37.556Z,101574.97
2023-04-04T21:00:27.672Z,101581.97
2023-04-04T21:02:54.737Z,101580.13
2023-04-04T21:05:28.343Z,101575.97
2023-04-04T21:07:55.304Z,101571.34
2023-04-04T21:10:23.825Z,101576.38
2023-04-04T21:12:51.247Z,101575.09
2023-04-04T21:15:22.934Z,101571.78
2023-04-04T21:17:49.741Z,101581.56
2023-04-04T21:20:17.117Z,101579.38
2023-04-04T21:22:44.681Z,101576.09
2023-04-04T21:25:18.364Z,101569.47
2023-04-04T21:27:49.787Z,101558.97
2023-04-04T21:30:36.377Z,101562.91
2023-04-04T21:33:04.025Z,101562.66
2023-04-04T21:35:44.795Z,101564.38
2023-04-04T21:38:23.257Z,101569.69
2023-04-04T21:40:49.835Z,101570.31
2023-04-04T21:43:16.420Z,101564.84
2023-04-04T21:45:44.012Z,101570.38
2023-04-04T21:48:10.698Z,101569.34
2023-04-04T21:50:37.390Z,101567.16
2023-04-04T21:53:03.992Z,101565.50
2023-04-04T21:55:30.764Z,101561.66
2023-04-04T21:57:57.298Z,101558.38
2023-04-04T22:00:23.870Z,101554.56
2023-04-04T22:02:50.591Z,101554.84
2023-04-04T22:05:19.702Z,101552.38
2023-04-04T22:07:48.124Z,101549.06
2023-04-04T22:10:14.693Z,101552.94
2023-04-04T22:12:42.719Z,101544.41
2023-04-04T22:15:10.862Z,101538.00
2023-04-04T22:17:37.449Z,101543.03
2023-04-04T22:20:11.103Z,101545.59
2023-04-04T22:22:38.416Z,101545.06
2023-04-04T22:25:07.222Z,101543.41
2023-04-04T22:27:34.946Z,101542.56
2023-04-04T22:30:01.556Z,101535.16
2023-04-04T22:32:33.475Z,101537.19
2023-04-04T22:35:00.489Z,101533.25
2023-04-04T22:37:27.439Z,101540.22
2023-04-04T22:39:54.212Z,101529.72
2023-04-04T22:42:20.966Z,101532.22
2023-04-04T22:44:47.750Z,101523.34
2023-04-04T22:47:14.520Z,101520.06
2023-04-04T22:49:48.250Z,101521.19
2023-04-04T22:52:15.529Z,101519.06
2023-04-04T22:54:42.817Z,101510.22
2023-04-04T22:57:09.656Z,101516.09
2023-04-04T22:59:36.314Z,101502.50
2023-04-04T23:02:03.022Z,101507.28
2023-04-04T23:04:32.514Z,101508.63
2023-04-04T23:06:59.217Z,101510.88
2023-04-04T23:09:26.253Z,101502.84
2023-04-04T23:11:52.785Z,101500.38
2023-04-04T23:14:19.866Z,101497.69
2023-04-04T23:16:46.531Z,101497.13
2023-04-04T23:19:13.072Z,101501.56
2023-04-04T23:21:39.778Z,101502.16
2023-04-04T23:24:07.302Z,101500.50
2023-04-04T23:26:34.127Z,101499.47
2023-04-04T23:29:01.509Z,101497.28
2023-04-04T23:31:28.426Z,101497.34
2023-04-04T23:33:55.528Z,101490.13
2023-04-04T23:36:22.400Z,101499.56
2023-04-04T23:38:48.966Z,101497.94
2023-04-04T23:41:16.269Z,101498.53
2023-04-04T23:43:43.312Z,101491.31
2023-04-04T23:46:10.008Z,101491.31
2023-04-04T23:48:36.863Z,101491.31
2023-04-04T23:51:03.766Z,101482.75
2023-04-04T23:53:30.403Z,101480.28
2023-04-04T23:55:57.048Z,101479.78
2023-04-04T23:58:23.643Z,101484.25
